createdAt,value
2023-01-28T00:00:55.496Z,4.00
2023-01-28T00:03:22.230Z,2.92
2023-01-28T00:05:48.812Z,3.33
2023-01-28T00:08:15.549Z,3.15
2023-01-28T00:10:45.355Z,2.95
2023-01-28T00:13:16.119Z,3.38
2023-01-28T00:15:42.672Z,3.10
2023-01-28T00:18:09.695Z,2.90
2023-01-28T00:20:36.415Z,3.55
2023-01-28T00:23:02.948Z,3.17
2023-01-28T00:25:29.542Z,3.53
2023-01-28T00:27:56.124Z,3.30
2023-01-28T00:30:22.734Z,2.77
2023-01-28T00:32:49.516Z,3.55
2023-01-28T00:35:16.296Z,3.15
2023-01-28T00:37:47.310Z,3.35
2023-01-28T00:40:14.040Z,3.30
2023-01-28T00:42:40.626Z,3.50
2023-01-28T00:45:07.593Z,3.30
2023-01-28T00:47:34.084Z,2.83
2023-01-28T00:50:00.580Z,3.33
2023-01-28T00:52:27.803Z,3.35
2023-01-28T00:54:54.534Z,3.30
2023-01-28T00:57:21.017Z,3.05
2023-01-28T00:59:47.500Z,3.28
2023-01-28T01:02:14.144Z,3.10
2023-01-28T01:04:41.137Z,2.85
2023-01-28T01:07:07.640Z,3.13
2023-01-28T01:09:34.220Z,3.17
2023-01-28T01:12:01.120Z,3.15
2023-01-28T01:14:27.693Z,3.30
2023-01-28T01:16:54.209Z,3.15
2023-01-28T01:19:20.687Z,3.50
2023-01-28T01:21:50.648Z,3.10
2023-01-28T01:24:18.176Z,3.38
2023-01-28T01:26:44.879Z,3.25
2023-01-28T01:29:11.524Z,3.42
2023-01-28T01:31:38.256Z,3.50
2023-01-28T01:34:04.866Z,2.97
2023-01-28T01:36:31.582Z,3.33
2023-01-28T01:38:58.063Z,3.05
2023-01-28T01:41:28.755Z,2.88
2023-01-28T01:43:58.493Z,3.10
2023-01-28T01:46:37.471Z,2.85
2023-01-28T01:49:21.559Z,3.20
2023-01-28T01:52:10.619Z,3.25
2023-01-28T01:54:39.588Z,3.70
2023-01-28T01:57:10.016Z,3.37
2023-01-28T01:59:37.967Z,3.90
2023-01-28T02:02:07.724Z,3.38
2023-01-28T02:04:39.206Z,3.03
2023-01-28T02:07:08.466Z,3.58
2023-01-28T02:09:36.631Z,3.07
2023-01-28T02:12:08.337Z,2.97
2023-01-28T02:14:38.471Z,3.03
2023-01-28T02:17:05.435Z,2.50
2023-01-28T02:19:40.645Z,2.58
2023-01-28T02:22:38.645Z,2.33
2023-01-28T02:25:23.592Z,3.10
2023-01-28T02:27:56.014Z,2.95
2023-01-28T02:30:44.432Z,2.75
2023-01-28T02:33:18.488Z,2.92
2023-01-28T02:35:53.244Z,3.23
2023-01-28T02:38:31.452Z,3.50
2023-01-28T02:41:09.904Z,3.05
2023-01-28T02:43:37.928Z,3.50
2023-01-28T02:46:36.946Z,3.22
2023-01-28T02:49:08.756Z,3.00
2023-01-28T02:51:52.386Z,3.20
2023-01-28T02:54:35.766Z,3.08
2023-01-28T02:57:20.373Z,3.15
2023-01-28T02:59:56.855Z,3.20
2023-01-28T03:02:35.091Z,3.30
2023-01-28T03:05:20.912Z,3.22
2023-01-28T03:07:48.513Z,2.53
2023-01-28T03:10:20.474Z,3.35
2023-01-28T03:13:10.729Z,2.90
2023-01-28T03:16:04.762Z,2.80
2023-01-28T03:19:02.487Z,3.17
2023-01-28T03:21:52.852Z,3.03
2023-01-28T03:24:47.611Z,3.05
2023-01-28T03:27:50.607Z,3.00
2023-01-28T03:30:50.243Z,3.20
2023-01-28T03:33:35.493Z,3.10
2023-01-28T03:36:20.731Z,2.90
2023-01-28T03:38:48.623Z,2.72
2023-01-28T03:41:21.959Z,3.05
2023-01-28T03:43:49.227Z,2.90
2023-01-28T03:46:15.658Z,3.08
2023-01-28T03:48:42.278Z,3.10
2023-01-28T03:51:08.701Z,3.40
2023-01-28T03:53:35.089Z,3.30
2023-01-28T03:56:01.492Z,2.60
2023-01-28T03:58:46.563Z,3.10
2023-01-28T04:01:13.629Z,2.72
2023-01-28T04:03:40.083Z,2.72
2023-01-28T04:06:08.969Z,2.88
2023-01-28T04:08:35.672Z,3.00
2023-01-28T04:11:15.539Z,3.33
2023-01-28T04:13:42.882Z,2.80
2023-01-28T04:16:09.352Z,2.97
2023-01-28T04:18:35.775Z,2.92
2023-01-28T04:21:02.197Z,2.97
2023-01-28T04:23:29.766Z,2.97
2023-01-28T04:25:56.379Z,2.75
2023-01-28T04:28:22.991Z,2.92
2023-01-28T04:30:49.420Z,2.83
2023-01-28T04:33:15.895Z,2.83
2023-01-28T04:35:42.387Z,3.08
2023-01-28T04:38:08.821Z,3.03
2023-01-28T04:40:35.401Z,3.30
2023-01-28T04:43:01.738Z,3.08
2023-01-28T04:45:28.262Z,3.10
2023-01-28T04:47:54.677Z,3.05
2023-01-28T04:50:21.104Z,2.75
2023-01-28T04:52:47.565Z,3.20
2023-01-28T04:55:14.357Z,3.40
2023-01-28T04:57:40.933Z,3.13
2023-01-28T05:00:08.083Z,3.10
2023-01-28T05:02:34.500Z,3.35
2023-01-28T05:05:04.686Z,3.35
2023-01-28T05:07:31.051Z,3.33
2023-01-28T05:09:57.425Z,3.10
2023-01-28T05:12:23.845Z,2.40
2023-01-28T05:14:50.172Z,3.30
2023-01-28T05:17:16.651Z,2.72
2023-01-28T05:19:43.625Z,3.10
2023-01-28T05:22:09.999Z,3.57
2023-01-28T05:24:36.397Z,2.80
2023-01-28T05:27:02.841Z,3.22
2023-01-28T05:29:29.283Z,2.80
2023-01-28T05:31:55.701Z,2.83
2023-01-28T05:34:22.145Z,2.60
2023-01-28T05:36:48.597Z,2.97
2023-01-28T05:39:15.022Z,2.75
2023-01-28T05:41:41.423Z,2.88
2023-01-28T05:44:07.791Z,3.08
2023-01-28T05:46:34.230Z,3.03
2023-01-28T05:49:00.648Z,2.60
2023-01-28T05:51:27.050Z,2.95
2023-01-28T05:53:53.603Z,2.88
2023-01-28T05:56:19.992Z,3.22
2023-01-28T05:58:46.338Z,2.57
2023-01-28T06:01:12.721Z,2.90
2023-01-28T06:03:39.186Z,3.50
2023-01-28T06:06:05.873Z,3.10
2023-01-28T06:08:32.243Z,3.42
2023-01-28T06:10:58.662Z,2.87
2023-01-28T06:13:25.100Z,2.92
2023-01-28T06:15:51.553Z,3.63
2023-01-28T06:18:17.976Z,2.97
2023-01-28T06:20:44.390Z,3.00
2023-01-28T06:23:10.844Z,3.47
2023-01-28T06:25:37.220Z,3.13
2023-01-28T06:28:03.582Z,3.40
2023-01-28T06:30:29.904Z,3.45
2023-01-28T06:32:56.431Z,3.22
2023-01-28T06:35:23.536Z,3.53
2023-01-28T06:37:50.316Z,3.20
2023-01-28T06:40:17.364Z,3.33
2023-01-28T06:42:44.176Z,3.17
2023-01-28T06:45:10.991Z,2.90
2023-01-28T06:47:39.697Z,3.70
2023-01-28T06:50:06.721Z,3.42
2023-01-28T06:52:33.082Z,3.42
2023-01-28T06:54:59.505Z,3.17
2023-01-28T06:57:25.902Z,3.75
2023-01-28T06:59:52.259Z,3.30
2023-01-28T07:02:18.676Z,3.22
2023-01-28T07:04:45.081Z,3.63
2023-01-28T07:07:11.443Z,3.53
2023-01-28T07:09:37.810Z,3.50
2023-01-28T07:12:05.436Z,3.00
2023-01-28T07:14:32.275Z,3.30
2023-01-28T07:16:58.780Z,3.47
2023-01-28T07:19:25.320Z,3.20
2023-01-28T07:21:51.695Z,3.38
2023-01-28T07:24:18.454Z,3.10
2023-01-28T07:26:44.827Z,3.47
2023-01-28T07:29:11.384Z,3.22
2023-01-28T07:31:38.104Z,3.88
2023-01-28T07:34:04.560Z,3.50
2023-01-28T07:36:30.981Z,3.73
2023-01-28T07:38:57.455Z,3.78
2023-01-28T07:41:23.839Z,4.32
2023-01-28T07:43:50.206Z,3.70
2023-01-28T07:46:16.633Z,3.33
2023-01-28T07:48:43.001Z,3.67
2023-01-28T07:51:09.419Z,3.53
2023-01-28T07:53:36.844Z,3.72
2023-01-28T07:56:05.111Z,3.08
2023-01-28T07:58:34.566Z,3.40
2023-01-28T08:01:01.852Z,2.90
2023-01-28T08:03:28.621Z,3.03
2023-01-28T08:05:56.469Z,3.17
2023-01-28T08:08:25.695Z,3.78
2023-01-28T08:10:52.549Z,3.15
2023-01-28T08:13:19.942Z,3.63
2023-01-28T08:15:46.906Z,3.58
2023-01-28T08:18:16.577Z,3.63
2023-01-28T08:20:44.907Z,3.67
2023-01-28T08:23:15.755Z,3.58
2023-01-28T08:25:42.657Z,3.10
2023-01-28T08:28:09.767Z,3.65
2023-01-28T08:30:38.128Z,3.55
2023-01-28T08:33:06.285Z,3.97
2023-01-28T08:35:33.171Z,3.78
2023-01-28T08:38:02.144Z,4.17
2023-01-28T08:40:29.449Z,3.63
2023-01-28T08:42:56.445Z,3.70
2023-01-28T08:45:27.647Z,3.65
2023-01-28T08:48:06.172Z,3.80
2023-01-28T08:50:38.028Z,3.37
2023-01-28T08:53:10.472Z,3.58
2023-01-28T08:55:36.991Z,3.45
2023-01-28T08:58:05.498Z,3.42
2023-01-28T09:00:33.181Z,3.47
2023-01-28T09:02:59.571Z,3.90
2023-01-28T09:05:26.073Z,3.47
2023-01-28T09:07:52.489Z,3.63
2023-01-28T09:10:22.097Z,4.15
2023-01-28T09:12:48.675Z,3.80
2023-01-28T09:15:15.247Z,3.50
2023-01-28T09:17:41.660Z,3.75
2023-01-28T09:20:08.922Z,3.22
2023-01-28T09:22:36.085Z,3.53
2023-01-28T09:25:02.582Z,3.22
2023-01-28T09:27:28.974Z,3.20
2023-01-28T09:29:55.401Z,3.30
2023-01-28T09:32:22.370Z,3.40
2023-01-28T09:34:48.769Z,3.42
2023-01-28T09:37:15.178Z,4.00
2023-01-28T09:39:41.509Z,3.07
2023-01-28T09:42:35.315Z,3.30
2023-01-28T09:45:05.857Z,2.92
2023-01-28T09:47:37.947Z,3.45
2023-01-28T09:50:42.026Z,3.65
2023-01-28T09:53:25.089Z,3.57
2023-01-28T09:56:04.371Z,3.75
2023-01-28T09:58:31.647Z,3.40
2023-01-28T10:01:36.793Z,3.97
2023-01-28T10:04:22.934Z,3.28
2023-01-28T10:07:01.836Z,3.40
2023-01-28T10:09:49.680Z,3.55
2023-01-28T10:12:25.301Z,3.28
2023-01-28T10:14:58.459Z,3.10
2023-01-28T10:17:45.069Z,3.40
2023-01-28T10:20:11.673Z,3.30
2023-01-28T10:22:44.952Z,2.92
2023-01-28T10:25:22.705Z,2.95
2023-01-28T10:27:51.174Z,3.20
2023-01-28T10:30:19.537Z,3.40
2023-01-28T10:33:10.328Z,3.07
2023-01-28T10:35:41.753Z,3.03
2023-01-28T10:38:13.988Z,3.53
2023-01-28T10:40:43.992Z,3.15
2023-01-28T10:43:10.680Z,3.13
2023-01-28T10:45:48.174Z,3.03
2023-01-28T10:48:35.155Z,2.38
2023-01-28T10:51:05.660Z,2.65
2023-01-28T10:53:43.306Z,2.63
2023-01-28T10:56:31.557Z,2.22
2023-01-28T10:59:03.718Z,2.33
2023-01-28T11:01:49.947Z,2.17
2023-01-28T11:04:24.771Z,2.20
2023-01-28T11:06:55.625Z,1.92
2023-01-28T11:09:24.695Z,2.35
2023-01-28T11:11:51.134Z,2.20
2023-01-28T11:14:23.160Z,1.80
2023-01-28T11:16:51.871Z,2.05
2023-01-28T11:19:21.394Z,1.80
2023-01-28T11:21:56.385Z,2.00
2023-01-28T11:24:27.181Z,1.87
2023-01-28T11:26:56.475Z,1.90
2023-01-28T11:29:32.545Z,1.80
2023-01-28T11:32:00.705Z,1.48
2023-01-28T11:34:34.722Z,1.50
2023-01-28T11:37:12.404Z,1.43
2023-01-28T11:39:39.026Z,1.77
2023-01-28T11:42:13.092Z,1.90
2023-01-28T11:44:40.463Z,1.50
2023-01-28T11:47:25.651Z,2.00
2023-01-28T11:50:17.160Z,1.87
2023-01-28T11:53:16.783Z,2.22
2023-01-28T11:55:52.248Z,1.73
2023-01-28T11:58:34.586Z,1.70
2023-01-28T12:01:08.726Z,1.40
2023-01-28T12:03:50.507Z,1.03
2023-01-28T12:06:35.730Z,1.00
2023-01-28T12:09:17.020Z,1.27
2023-01-28T12:12:13.069Z,1.25
2023-01-28T12:14:58.257Z,1.08
2023-01-28T12:17:33.683Z,0.90
2023-01-28T12:20:21.819Z,1.38
2023-01-28T12:22:51.249Z,1.25
2023-01-28T12:25:43.211Z,1.13
2023-01-28T12:28:18.895Z,1.20
2023-01-28T12:30:51.338Z,1.30
2023-01-28T12:33:52.222Z,1.45
2023-01-28T12:36:43.324Z,1.58
2023-01-28T12:39:26.601Z,1.48
2023-01-28T12:42:08.683Z,1.95
2023-01-28T12:44:42.255Z,1.40
2023-01-28T12:47:13.341Z,1.27
2023-01-28T12:49:45.598Z,1.63
2023-01-28T12:52:19.783Z,1.45
2023-01-28T12:55:11.650Z,1.15
2023-01-28T12:57:38.724Z,1.37
2023-01-28T13:00:39.784Z,1.60
2023-01-28T13:03:30.651Z,1.25
2023-01-28T13:06:02.678Z,1.17
2023-01-28T13:08:29.971Z,1.73
2023-01-28T13:10:59.533Z,1.20
2023-01-28T13:13:30.045Z,1.48
2023-01-28T13:15:57.473Z,1.38
2023-01-28T13:18:43.585Z,1.60
2023-01-28T13:21:16.104Z,1.50
2023-01-28T13:23:47.862Z,1.50
2023-01-28T13:26:46.354Z,2.00
2023-01-28T13:29:25.041Z,1.60
2023-01-28T13:31:54.458Z,1.33
2023-01-28T13:34:40.498Z,1.38
2023-01-28T13:37:29.426Z,1.70
2023-01-28T13:40:16.621Z,1.30
2023-01-28T13:42:43.295Z,1.30
2023-01-28T13:45:16.079Z,1.40
2023-01-28T13:47:50.070Z,1.20
2023-01-28T13:50:20.647Z,1.10
2023-01-28T13:53:02.403Z,1.42
2023-01-28T13:55:44.781Z,1.10
2023-01-28T13:58:36.455Z,1.35
2023-01-28T14:01:31.201Z,1.13
2023-01-28T14:04:29.899Z,0.80
2023-01-28T14:07:15.390Z,0.95
2023-01-28T14:10:20.850Z,1.10
2023-01-28T14:13:08.994Z,0.75
2023-01-28T14:15:56.716Z,0.60
2023-01-28T14:18:28.575Z,0.70
2023-01-28T14:21:00.444Z,0.80
2023-01-28T14:23:31.127Z,0.93
2023-01-28T14:26:15.909Z,1.00
2023-01-28T14:28:56.317Z,1.10
2023-01-28T14:31:36.216Z,0.77
2023-01-28T14:34:17.924Z,0.80
2023-01-28T14:36:47.575Z,0.80
2023-01-28T14:39:20.524Z,0.77
2023-01-28T14:41:49.744Z,1.10
2023-01-28T14:44:44.330Z,0.77
2023-01-28T14:47:29.020Z,0.80
2023-01-28T14:50:04.739Z,0.95
2023-01-28T14:52:51.374Z,0.65
2023-01-28T14:55:53.542Z,0.80
2023-01-28T14:58:25.517Z,0.63
2023-01-28T15:00:59.279Z,0.65
2023-01-28T15:03:27.470Z,0.80
2023-01-28T15:06:13.346Z,0.60
2023-01-28T15:08:40.506Z,1.00
2023-01-28T15:11:11.655Z,1.10
2023-01-28T15:13:43.400Z,0.77
2023-01-28T15:16:19.424Z,1.20
2023-01-28T15:18:47.327Z,0.93
2023-01-28T15:21:18.535Z,0.93
2023-01-28T15:23:51.566Z,1.13
2023-01-28T15:26:24.469Z,1.13
2023-01-28T15:28:52.515Z,1.08
2023-01-28T15:31:24.326Z,1.10
2023-01-28T15:34:02.003Z,0.88
2023-01-28T15:36:29.584Z,1.60
2023-01-28T15:38:57.232Z,2.05
2023-01-28T15:41:29.378Z,2.33
2023-01-28T15:43:55.987Z,1.60
2023-01-28T15:46:22.578Z,1.85
2023-01-28T15:49:01.072Z,2.37
2023-01-28T15:51:33.810Z,2.33
2023-01-28T15:54:05.163Z,2.38
2023-01-28T15:56:31.915Z,4.88
2023-01-28T15:59:10.780Z,6.88
2023-01-28T16:01:37.214Z,4.50
2023-01-28T16:04:06.511Z,2.90
2023-01-28T16:06:37.541Z,2.55
2023-01-28T16:09:24.645Z,2.25
2023-01-28T16:11:51.842Z,2.25
2023-01-28T16:14:31.247Z,2.33
2023-01-28T16:16:57.764Z,2.45
2023-01-28T16:19:33.112Z,3.67
2023-01-28T16:22:00.184Z,3.13
2023-01-28T16:24:32.016Z,2.03
2023-01-28T16:27:02.750Z,6.37
2023-01-28T16:29:31.078Z,5.13
2023-01-28T16:31:59.899Z,3.15
2023-01-28T16:34:27.672Z,2.10
2023-01-28T16:37:00.301Z,2.40
2023-01-28T16:39:27.008Z,2.87
2023-01-28T16:41:53.965Z,5.15
2023-01-28T16:44:20.426Z,4.07
2023-01-28T16:46:46.919Z,3.70
2023-01-28T16:49:13.577Z,10.40
2023-01-28T16:51:43.592Z,4.30
2023-01-28T16:54:14.467Z,3.45
2023-01-28T16:56:45.523Z,2.17
2023-01-28T16:59:14.954Z,2.20
2023-01-28T17:01:42.125Z,4.07
2023-01-28T17:04:12.745Z,4.50
2023-01-28T17:06:44.277Z,3.15
2023-01-28T17:09:12.892Z,3.90
2023-01-28T17:11:42.242Z,3.80
2023-01-28T17:14:10.448Z,2.70
2023-01-28T17:16:37.187Z,2.90
2023-01-28T17:19:03.808Z,2.92
2023-01-28T17:21:30.250Z,2.47
2023-01-28T17:23:58.341Z,2.50
2023-01-28T17:26:25.760Z,2.92
2023-01-28T17:28:53.441Z,3.50
2023-01-28T17:31:20.630Z,3.47
2023-01-28T17:33:47.118Z,3.78
2023-01-28T17:36:14.381Z,4.07
2023-01-28T17:38:45.266Z,4.45
2023-01-28T17:41:13.398Z,3.90
2023-01-28T17:43:39.834Z,5.28
2023-01-28T17:46:14.063Z,6.00
2023-01-28T17:48:41.011Z,6.93
2023-01-28T17:51:07.584Z,6.55
2023-01-28T17:53:34.014Z,7.00
2023-01-28T17:56:00.414Z,6.90
2023-01-28T17:58:26.955Z,6.10
2023-01-28T18:00:53.361Z,6.53
2023-01-28T18:03:19.779Z,5.72
2023-01-28T18:05:57.727Z,5.80
2023-01-28T18:08:24.322Z,5.53
2023-01-28T18:10:50.862Z,3.80
2023-01-28T18:13:17.376Z,3.72
2023-01-28T18:15:43.783Z,4.25
2023-01-28T18:18:10.252Z,3.97
2023-01-28T18:20:36.712Z,4.93
2023-01-28T18:23:03.262Z,5.35
2023-01-28T18:25:29.646Z,6.35
2023-01-28T18:27:56.049Z,6.40
2023-01-28T18:30:22.493Z,6.03
2023-01-28T18:32:48.915Z,4.95
2023-01-28T18:35:15.877Z,5.45
2023-01-28T18:37:42.407Z,4.55
2023-01-28T18:40:09.457Z,5.00
2023-01-28T18:42:37.494Z,7.47
2023-01-28T18:45:05.311Z,5.15
2023-01-28T18:47:31.798Z,4.80
2023-01-28T18:49:58.228Z,4.60
2023-01-28T18:52:24.665Z,5.55
2023-01-28T18:54:51.011Z,4.33
2023-01-28T18:57:19.687Z,4.10
2023-01-28T18:59:47.469Z,4.38
2023-01-28T19:02:14.531Z,4.20
2023-01-28T19:04:40.919Z,4.50
2023-01-28T19:07:10.299Z,4.00
2023-01-28T19:09:37.903Z,4.53
2023-01-28T19:12:04.699Z,4.60
2023-01-28T19:14:31.095Z,3.92
2023-01-28T19:16:58.177Z,4.53
2023-01-28T19:19:24.944Z,10.20
2023-01-28T19:21:51.383Z,5.78
2023-01-28T19:24:17.930Z,5.07
2023-01-28T19:26:44.903Z,3.97
2023-01-28T19:29:14.565Z,4.35
2023-01-28T19:31:43.129Z,4.00
2023-01-28T19:34:10.450Z,4.72
2023-01-28T19:36:37.119Z,4.80
2023-01-28T19:39:06.993Z,3.90
2023-01-28T19:41:33.423Z,3.58
2023-01-28T19:43:59.814Z,3.53
2023-01-28T19:46:26.500Z,3.53
2023-01-28T19:48:53.351Z,3.90
2023-01-28T19:51:20.351Z,3.92
2023-01-28T19:53:50.138Z,4.07
2023-01-28T19:56:18.372Z,7.83
2023-01-28T19:58:45.601Z,7.25
2023-01-28T20:01:17.496Z,5.97
2023-01-28T20:03:45.772Z,5.35
2023-01-28T20:06:15.738Z,5.35
2023-01-28T20:08:43.355Z,5.43
2023-01-28T20:11:12.321Z,6.20
2023-01-28T20:13:40.713Z,5.53
2023-01-28T20:16:09.693Z,5.60
2023-01-28T20:18:36.158Z,6.38
2023-01-28T20:21:04.959Z,5.43
2023-01-28T20:23:31.653Z,5.07
2023-01-28T20:25:59.136Z,6.40
2023-01-28T20:28:25.658Z,5.53
2023-01-28T20:30:52.810Z,5.95
2023-01-28T20:33:19.479Z,5.77
2023-01-28T20:35:45.883Z,6.05
2023-01-28T20:38:12.955Z,5.57
2023-01-28T20:40:46.031Z,5.82
2023-01-28T20:43:12.455Z,6.88
2023-01-28T20:45:38.945Z,6.70
2023-01-28T20:48:05.490Z,7.07
2023-01-28T20:50:31.874Z,5.25
2023-01-28T20:52:58.442Z,5.55
2023-01-28T20:55:25.005Z,6.18
2023-01-28T20:57:52.306Z,6.00
2023-01-28T21:00:19.481Z,5.57
2023-01-28T21:02:46.146Z,6.40
2023-01-28T21:05:13.318Z,6.28
2023-01-28T21:07:39.715Z,5.82
2023-01-28T21:10:06.945Z,5.77
2023-01-28T21:12:33.498Z,6.15
2023-01-28T21:14:59.880Z,6.05
2023-01-28T21:17:26.348Z,5.82
2023-01-28T21:19:52.919Z,6.00
2023-01-28T21:22:20.107Z,6.20
2023-01-28T21:24:48.999Z,6.18
2023-01-28T21:27:15.714Z,7.10
2023-01-28T21:29:42.394Z,5.90
2023-01-28T21:32:09.049Z,6.43
2023-01-28T21:34:35.516Z,6.37
2023-01-28T21:37:01.861Z,6.90
2023-01-28T21:39:28.226Z,7.25
2023-01-28T21:41:54.708Z,6.50
2023-01-28T21:44:21.721Z,6.43
2023-01-28T21:46:48.194Z,7.80
2023-01-28T21:49:14.639Z,6.90
2023-01-28T21:51:47.212Z,6.72
2023-01-28T21:54:16.154Z,6.68
2023-01-28T21:56:44.954Z,7.28
2023-01-28T21:59:28.051Z,7.10
2023-01-28T22:02:01.348Z,6.30
2023-01-28T22:04:34.703Z,7.47
2023-01-28T22:07:02.033Z,6.55
2023-01-28T22:09:29.386Z,6.60
2023-01-28T22:11:55.822Z,5.93
2023-01-28T22:14:22.633Z,6.30
2023-01-28T22:16:49.234Z,7.07
2023-01-28T22:19:15.774Z,6.28
2023-01-28T22:21:44.629Z,6.28
2023-01-28T22:24:14.688Z,7.03
2023-01-28T22:26:42.128Z,6.70
2023-01-28T22:29:09.525Z,7.03
2023-01-28T22:31:36.705Z,7.25
2023-01-28T22:34:03.475Z,6.50
2023-01-28T22:36:30.165Z,6.77
2023-01-28T22:38:56.611Z,6.50
2023-01-28T22:41:23.196Z,7.13
2023-01-28T22:43:51.172Z,6.60
2023-01-28T22:46:19.997Z,6.82
2023-01-28T22:48:46.753Z,6.90
2023-01-28T22:51:21.802Z,6.95
2023-01-28T22:53:49.324Z,6.72
2023-01-28T22:56:18.582Z,6.88
2023-01-28T22:58:45.838Z,6.25
2023-01-28T23:01:15.434Z,6.83
2023-01-28T23:03:46.813Z,6.70
2023-01-28T23:06:15.842Z,6.57
2023-01-28T23:08:42.796Z,6.65
2023-01-28T23:11:30.306Z,6.85
2023-01-28T23:14:21.022Z,6.33
2023-01-28T23:17:06.850Z,6.35
2023-01-28T23:19:52.758Z,6.40
2023-01-28T23:22:48.584Z,6.20
2023-01-28T23:25:15.433Z,6.68
2023-01-28T23:27:42.569Z,6.80
2023-01-28T23:30:10.762Z,6.53
2023-01-28T23:32:42.573Z,6.03
2023-01-28T23:35:10.662Z,6.85
2023-01-28T23:37:37.252Z,6.78
2023-01-28T23:40:04.896Z,5.73
2023-01-28T23:42:31.371Z,6.43
2023-01-28T23:44:57.831Z,6.25
2023-01-28T23:47:24.316Z,6.80
2023-01-28T23:49:50.945Z,6.60
2023-01-28T23:52:17.339Z,6.63
2023-01-28T23:54:43.731Z,6.82
2023-01-28T23:57:10.104Z,6.60
2023-01-28T23:59:36.662Z,6.15
